Pagina principale
METAR-TAF:

METAR-TAF

Aeroporti :

Grazzanise, Italia

latitudine: 41-03N, longitudine: 014-04E, altezza: 9 m

Osservazione

Il bollettino è stato emesso 37 minuti fa, alle 09:55 UTC
Vento 3 kt da ovest/nord-ovest
Temperature 22°C
Umidità 33%
Pressione 1019 hPa
Visibilità 10 km o più
nessuna nube inferiore a 1500 m e nessun cumulonembo

METAR: LIRM 210955Z 30003KT CAVOK 22/05 Q1019 RMK SKC VIS MIN 9999 WIND THR06 /////KT BLU

Ora: 12:32 (10:32 UTC)

Previsione

Il bollettino è stato emesso 2 ore e 32 minuti fa, alle 08:00 UTC
Previsione valida dal 21 alle 09 UTC al 21 alle 18 UTC
Vento 3 kt da direzioni variabili
Visibilità 10 km o più
nessuna nube inferiore a 1500 m e nessun cumulonembo
Temporaneamente
dal 21 alle 13 UTC al 21 alle 17 UTC
Vento 13 kt da ovest/sud-ovest

TAF: LIRM 210800Z 2109/2118 VRB03KT CAVOK TEMPO 2113/2117 25013KT

Osservazioni e previsioni meteorologiche di più di 4000 aeroporti (messaggi METAR e TAF).

Le stazioni disponibili sono rappresentate dai dischi gialli e rossi sulla carta.

Puntare il mouse per vedere il nome della stazione.

Clicca sopra per visualizzare le osservazioni e previsioni meteorologiche.

Per cambiare la mappa : fare clic sui pulsanti verdi con una croce nera per ingrandire, il pulsante verde con un trattino per diminuire, o sulla freccia verde per le mappe adiacenti.


METAR-TAF: